^^
Your Local Weather - Clay, NY Station Historical Data
Daily Summary for February 28, 2018 Units:  Metric    English   Both
« Previous Day
Next Day »
Daily Weekly Monthly Yearly Custom
  High: Low: Average:
Temperature: 16.9 °C -0.4 °C 7.8 °C
Dew Point: 6.4 °C -3.8 °C 0.6 °C
Humidity: 87% 29% 66%
Wind Speed: 14.5km/h 0km/h 3.2km/h
Wind Gust: 20.9km/h - -
Wind- - SW
Pressure: 1017.5 hPa 1006.7 hPa -
Precipitation: 0.51 mm    
Historical Graphs
 
 
Tabular Data for February 28, 2018
Time Temperature Dew Point Pressure Wind Wind Speed Wind Gust Humidity Rainfall Rate (Hourly) solar
00:04 1.2 °C -3.7 °C 1017.2 hPa Calm     70% 0 mm 0 W/m2
00:10 1.2 °C -3.4 °C 1017.2 hPa Calm     71% 0 mm 0 W/m2
00:16 1.3 °C -3.4 °C 1017.5 hPa Calm     71% 0 mm 0 W/m2
00:22 1.3 °C -3.4 °C 1017.2 hPa Calm     71% 0 mm 0 W/m2
00:28 1.2 °C -3.4 °C 1017.2 hPa Calm     71% 0 mm 0 W/m2
00:34 1.1 °C -3.4 °C 1017.2 hPa Calm     72% 0 mm 0 W/m2
00:40 1 °C -3.5 °C 1017.2 hPa Calm     72% 0 mm 0 W/m2
00:46 0.9 °C -3.4 °C 1016.8 hPa Calm     73% 0 mm 0 W/m2
00:52 0.8 °C -3.4 °C 1016.8 hPa Calm     73% 0 mm 0 W/m2
00:58 0.8 °C -3.1 °C 1016.8 hPa Calm     75% 0 mm 0 W/m2
01:04 0.8 °C -3 °C 1016.8 hPa Calm     76% 0 mm 0 W/m2
01:10 0.7 °C -2.9 °C 1016.8 hPa Calm     77% 0 mm 0 W/m2
01:16 0.5 °C -3.1 °C 1016.8 hPa Calm     77% 0 mm 0 W/m2
01:22 0.4 °C -3 °C 1016.8 hPa Calm     78% 0 mm 0 W/m2
01:28 0.3 °C -2.9 °C 1016.8 hPa Calm     79% 0 mm 0 W/m2
01:34 0.2 °C -2.9 °C 1016.8 hPa Calm     80% 0 mm 0 W/m2
01:40 0.2 °C -2.7 °C 1016.8 hPa Calm     81% 0 mm 0 W/m2
01:46 0.1 °C -2.8 °C 1016.8 hPa Calm     81% 0 mm 0 W/m2
01:52 0.1 °C -2.8 °C 1016.8 hPa Calm     81% 0 mm 0 W/m2
01:58 0.1 °C -2.8 °C 1016.8 hPa Calm   1.6 km/h 81% 0 mm 0 W/m2
02:04 0.1 °C -2.8 °C 1016.8 hPa Calm     81% 0 mm 0 W/m2
02:10 0.2 °C -2.7 °C 1016.8 hPa Calm     81% 0 mm 0 W/m2
02:16 0.2 °C -2.7 °C 1016.8 hPa Calm     81% 0 mm 0 W/m2
02:22 0.3 °C -2.4 °C 1016.5 hPa Calm     82% 0 mm 0 W/m2
02:28 0.5 °C -2.2 °C 1016.5 hPa Calm     82% 0 mm 0 W/m2
02:34 0.6 °C -2.1 °C 1016.5 hPa Calm     82% 0 mm 0 W/m2
02:40 0.7 °C -2 °C 1016.5 hPa Calm     82% 0 mm 0 W/m2
02:46 0.8 °C -2.1 °C 1016.5 hPa Calm     81% 0 mm 0 W/m2
02:52 0.9 °C -1.8 °C 1016.1 hPa Calm     82% 0 mm 0 W/m2
02:58 0.9 °C -1.7 °C 1016.1 hPa Calm     83% 0 mm 0 W/m2
03:04 0.9 °C -1.7 °C 1016.1 hPa Calm     83% 0 mm 0 W/m2
03:10 0.8 °C -1.8 °C 1015.8 hPa Calm     83% 0 mm 0 W/m2
03:16 0.8 °C -1.8 °C 1015.8 hPa Calm     83% 0 mm 0 W/m2
03:22 0.8 °C -1.8 °C 1015.8 hPa Calm     83% 0 mm 0 W/m2
03:28 0.8 °C -1.8 °C 1015.8 hPa Calm     83% 0 mm 0 W/m2
03:34 0.8 °C -1.7 °C 1015.8 hPa Calm     83% 0 mm 0 W/m2
03:40 0.8 °C -1.7 °C 1015.8 hPa Calm     83% 0 mm 0 W/m2
03:46 0.8 °C -1.7 °C 1015.8 hPa Calm     83% 0 mm 0 W/m2
03:52 0.9 °C -1.7 °C 1015.5 hPa Calm     83% 0 mm 0 W/m2
03:58 0.9 °C -1.6 °C 1015.5 hPa SW 1.6 km/h 4.8 km/h 83% 0 mm 0 W/m2
04:04 1 °C -1.6 °C 1015.5 hPa SW 1.6 km/h 1.6 km/h 83% 0 mm 0 W/m2
04:10 1.1 °C -1.5 °C 1015.1 hPa Calm     83% 0 mm 0 W/m2
04:16 1.1 °C -1.5 °C 1015.1 hPa Calm     83% 0 mm 0 W/m2
04:22 1.1 °C -1.4 °C 1015.1 hPa Calm     83% 0 mm 0 W/m2
04:28 1.2 °C -1.2 °C 1015.1 hPa Calm     84% 0 mm 0 W/m2
04:34 1.2 °C -1.2 °C 1015.1 hPa Calm     84% 0 mm 0 W/m2
04:40 1.3 °C -1.1 °C 1015.1 hPa Calm     84% 0 mm 0 W/m2
04:46 1.3 °C -1.3 °C 1015.1 hPa Calm     83% 0 mm 0 W/m2
04:52 1.3 °C -1.3 °C 1015.1 hPa Calm     83% 0 mm 0 W/m2
04:58 1.3 °C -1.4 °C 1015.1 hPa Calm     82% 0 mm 0 W/m2
05:04 1.3 °C -1.4 °C 1015.1 hPa Calm     82% 0 mm 0 W/m2
05:10 1.3 °C -1.6 °C 1015.1 hPa Calm     81% 0 mm 0 W/m2
05:16 1.2 °C -1.5 °C 1015.1 hPa Calm     82% 0 mm 0 W/m2
05:22 1.1 °C -1.6 °C 1014.8 hPa Calm     82% 0 mm 0 W/m2
05:28 1.1 °C -1.7 °C 1014.8 hPa Calm     82% 0 mm 0 W/m2
05:34 0.9 °C -1.8 °C 1014.8 hPa Calm     82% 0 mm 0 W/m2
05:40 0.8 °C -1.9 °C 1014.8 hPa Calm     82% 0 mm 0 W/m2
05:46 0.7 °C -2 °C 1014.8 hPa Calm     82% 0 mm 0 W/m2
05:52 0.6 °C -2 °C 1014.8 hPa Calm     83% 0 mm 0 W/m2
05:58 0.4 °C -2.1 °C 1014.8 hPa Calm     83% 0 mm 0 W/m2
06:04 0.3 °C -2.1 °C 1014.8 hPa Calm     84% 0 mm 0 W/m2
06:10 0.3 °C -2.1 °C 1014.8 hPa Calm     84% 0 mm 0 W/m2
06:16 0.2 °C -2.2 °C 1014.4 hPa Calm     84% 0 mm 0 W/m2
06:22 0.1 °C -2.3 °C 1014.4 hPa Calm     84% 0 mm 0 W/m2
06:28 0 °C -2.2 °C 1014.4 hPa Calm     85% 0 mm 0 W/m2
06:34 -0.1 °C -2.3 °C 1014.1 hPa Calm   3.2 km/h 85% 0 mm 0 W/m2
06:40 -0.1 °C -2.3 °C 1014.1 hPa Calm     85% 0 mm 0 W/m2
06:46 -0.3 °C -2.5 °C 1014.1 hPa Calm     85% 0 mm 5 W/m2
06:52 -0.4 °C -2.6 °C 1014.1 hPa Calm     85% 0 mm 9 W/m2
06:58 -0.4 °C -2.7 °C 1014.1 hPa Calm     85% 0 mm 16 W/m2
07:04 -0.4 °C -2.7 °C 1014.1 hPa Calm     85% 0 mm 21 W/m2
07:10 -0.3 °C -2.4 °C 1014.1 hPa Calm     86% 0 mm 25 W/m2
07:16 -0.3 °C -2.3 °C 1014.1 hPa Calm     86% 0 mm 28 W/m2
07:22 -0.2 °C -2.3 °C 1014.1 hPa Calm     86% 0 mm 32 W/m2
07:28 -0.1 °C -2.2 °C 1014.1 hPa Calm     86% 0 mm 44 W/m2
07:34 -0.1 °C -2.1 °C 1014.1 hPa Calm     86% 0 mm 54 W/m2
07:40 0.1 °C -2 °C 1013.8 hPa Calm     86% 0 mm 98 W/m2
07:46 0.2 °C -1.8 °C 1013.8 hPa Calm     86% 0 mm 93 W/m2
07:52 0.4 °C -1.6 °C 1013.8 hPa Calm     86% 0 mm 121 W/m2
07:58 0.9 °C -1.2 °C 1013.8 hPa Calm     86% 0 mm 49 W/m2
08:04 1.4 °C -0.8 °C 1013.8 hPa Calm     85% 0 mm 76 W/m2
08:10 2.1 °C -0.4 °C 1013.4 hPa Calm     84% 0 mm 127 W/m2
08:16 2.8 °C 0.2 °C 1013.4 hPa Calm     83% 0 mm 162 W/m2
08:22 3.6 °C 0.8 °C 1013.4 hPa Calm     82% 0 mm 160 W/m2
08:28 4.3 °C 1.3 °C 1013.4 hPa Calm   1.6 km/h 81% 0 mm 156 W/m2
08:34 5.1 °C 1.4 °C 1013.4 hPa Calm     77% 0 mm 135 W/m2
08:40 6.3 °C 0.4 °C 1013.1 hPa Calm   1.6 km/h 66% 0 mm 278 W/m2
08:46 7.9 °C 0.1 °C 1013.1 hPa SW 1.6 km/h 3.2 km/h 58% 0 mm 345 W/m2
08:52 8.9 °C -2.4 °C 1013.1 hPa SSE 3.2 km/h 4.8 km/h 45% 0 mm 200 W/m2
08:58 9.5 °C -2.5 °C 1013.1 hPa South 3.2 km/h 4.8 km/h 43% 0 mm 160 W/m2
09:04 9.5 °C -2.8 °C 1013.1 hPa South 3.2 km/h 4.8 km/h 42% 0 mm 229 W/m2
09:10 10.1 °C -2.9 °C 1013.1 hPa SSW 3.2 km/h 4.8 km/h 40% 0 mm 265 W/m2
09:16 10.2 °C -3.2 °C 1013.1 hPa South 4.8 km/h 8 km/h 39% 0 mm 165 W/m2
09:22 10.1 °C -3.2 °C 1012.8 hPa South 4.8 km/h 9.7 km/h 39% 0 mm 163 W/m2
09:28 10.2 °C -3.6 °C 1012.8 hPa SSW 4.8 km/h 9.7 km/h 38% 0 mm 207 W/m2
09:34 10.8 °C -3 °C 1012.8 hPa SW 4.8 km/h 4.8 km/h 38% 0 mm 492 W/m2
09:40 10.9 °C -2.5 °C 1012.4 hPa SSW 3.2 km/h 6.4 km/h 39% 0 mm 271 W/m2
09:46 11.1 °C -3.8 °C 1012.1 hPa SSW 4.8 km/h 8 km/h 35% 0 mm 276 W/m2
09:52 11.3 °C -3.3 °C 1012.1 hPa South 8 km/h 12.9 km/h 36% 0 mm 209 W/m2
09:58 11.3 °C -2.9 °C 1012.1 hPa SSW 9.7 km/h 12.9 km/h 37% 0 mm 311 W/m2
10:04 11.8 °C -3.2 °C 1012.1 hPa South 6.4 km/h 8 km/h 35% 0 mm 552 W/m2
10:10 12.1 °C -3.3 °C 1011.7 hPa SSW 8 km/h 11.3 km/h 34% 0 mm 619 W/m2
10:16 12.3 °C -3.2 °C 1011.7 hPa WSW 9.7 km/h 11.3 km/h 34% 0 mm 575 W/m2
10:22 12.8 °C -3.1 °C 1011.7 hPa SSW 8 km/h 8 km/h 33% 0 mm 598 W/m2
10:28 12.6 °C -2.9 °C 1011.4 hPa SSW 8 km/h 16.1 km/h 34% 0 mm 580 W/m2
10:34 12.9 °C -2.6 °C 1011.4 hPa SSE 8 km/h 8 km/h 34% 0 mm 468 W/m2
10:40 12.9 °C -2.9 °C 1011.4 hPa SSW 6.4 km/h 12.9 km/h 33% 0 mm 598 W/m2
10:46 12.9 °C -2.2 °C 1011.4 hPa SSW 8 km/h 12.9 km/h 35% 0 mm 610 W/m2
10:52 13.3 °C -2.7 °C 1011.1 hPa SSW 6.4 km/h 8 km/h 33% 0 mm 638 W/m2
10:58 13.2 °C -2.8 °C 1011.1 hPa South 8 km/h 16.1 km/h 33% 0 mm 575 W/m2
11:04 13.2 °C -3.2 °C 1011.1 hPa SW 8 km/h 9.7 km/h 32% 0 mm 411 W/m2
11:10 13.4 °C -3 °C 1011.1 hPa SW 6.4 km/h 9.7 km/h 32% 0 mm 650 W/m2
11:16 13.7 °C -2.3 °C 1011.1 hPa SSE 8 km/h 11.3 km/h 33% 0 mm 691 W/m2
11:22 13.4 °C -3.8 °C 1011.1 hPa SW 8 km/h 11.3 km/h 30% 0 mm 649 W/m2
11:28 13.8 °C -3.1 °C 1010.7 hPa South 6.4 km/h 11.3 km/h 31% 0 mm 675 W/m2
11:34 13.8 °C -2.6 °C 1010.4 hPa SE 8 km/h 8 km/h 32% 0 mm 403 W/m2
11:40 14.2 °C -2.3 °C 1010.4 hPa SW 8 km/h 11.3 km/h 32% 0 mm 814 W/m2
11:46 13.8 °C -3.1 °C 1010 hPa South 8 km/h 12.9 km/h 31% 0 mm 288 W/m2
11:52 13.7 °C -3.1 °C 1010 hPa SSW 9.7 km/h 9.7 km/h 31% 0 mm 403 W/m2
11:58 14.6 °C -3.3 °C 1010 hPa SSW 8 km/h 12.9 km/h 29% 0 mm 744 W/m2
12:04 14.5 °C -2.9 °C 1010 hPa SW 8 km/h 8 km/h 30% 0 mm 684 W/m2
12:10 15 °C -2.4 °C 1009.7 hPa SW 6.4 km/h 6.4 km/h 30% 0 mm 738 W/m2
12:16 15.4 °C -0.4 °C 1009.4 hPa SSE 4.8 km/h 9.7 km/h 34% 0 mm 687 W/m2
12:22 15.4 °C -1.6 °C 1009.4 hPa SW 6.4 km/h 17.7 km/h 31% 0 mm 773 W/m2
12:28 15.2 °C -1 °C 1009.4 hPa SSW 8 km/h 17.7 km/h 33% 0 mm 469 W/m2
12:34 15.8 °C -0.4 °C 1009 hPa SE 8 km/h 12.9 km/h 33% 0 mm 469 W/m2
12:40 15.9 °C 0.1 °C 1009 hPa SW 8 km/h 16.1 km/h 34% 0 mm 469 W/m2
12:46 15.8 °C -0.1 °C 1009 hPa South 8 km/h 16.1 km/h 34% 0 mm 353 W/m2
12:52 15.6 °C -0.7 °C 1009 hPa SW 8 km/h 14.5 km/h 33% 0 mm 403 W/m2
12:58 15.7 °C -0.9 °C 1008.7 hPa South 9.7 km/h 14.5 km/h 32% 0 mm 782 W/m2
13:04 15.9 °C -0.3 °C 1008.4 hPa SSW 9.7 km/h 9.7 km/h 33% 0 mm 772 W/m2
13:10 16.1 °C -1.1 °C 1008.4 hPa West 9.7 km/h 14.5 km/h 31% 0 mm 232 W/m2
13:16 15.4 °C -0.8 °C 1008.4 hPa SSW 9.7 km/h 14.5 km/h 33% 0 mm 257 W/m2
13:22 15.4 °C -0.4 °C 1008 hPa SSW 8 km/h 9.7 km/h 34% 0 mm 383 W/m2
13:28 15.8 °C -0.9 °C 1007.7 hPa SSW 8 km/h 11.3 km/h 32% 0 mm 323 W/m2
13:34 15.6 °C -1.1 °C 1007.7 hPa SSE 8 km/h 8 km/h 32% 0 mm 262 W/m2
13:40 15.6 °C -1.1 °C 1007.7 hPa SSW 8 km/h 8 km/h 32% 0 mm 255 W/m2
13:46 15.9 °C -0.8 °C 1007.7 hPa South 8 km/h 9.7 km/h 32% 0 mm 380 W/m2
13:52 16.3 °C -0.4 °C 1007.7 hPa SSW 6.4 km/h 9.7 km/h 32% 0 mm 297 W/m2
13:58 16.2 °C -0.6 °C 1007.7 hPa South 8 km/h 9.7 km/h 32% 0 mm 473 W/m2
14:04 16.2 °C -0.1 °C 1007.3 hPa SW 9.7 km/h 11.3 km/h 33% 0 mm 633 W/m2
14:10 16.5 °C 0.2 °C 1007.3 hPa SW 8 km/h 8 km/h 33% 0 mm 705 W/m2
14:16 16.9 °C -0.8 °C 1007.3 hPa SSW 6.4 km/h 8 km/h 30% 0 mm 645 W/m2
14:22 16.9 °C -0.8 °C 1007.3 hPa West 9.7 km/h 9.7 km/h 30% 0 mm 628 W/m2
14:28 16.4 °C -1.3 °C 1007.3 hPa SW 11.3 km/h 17.7 km/h 30% 0 mm 239 W/m2
14:34 15.9 °C -0.8 °C 1007.3 hPa WSW 11.3 km/h 17.7 km/h 32% 0 mm 158 W/m2
14:40 15.6 °C -1.1 °C 1007.3 hPa WSW 9.7 km/h 9.7 km/h 32% 0 mm 211 W/m2
14:46 15.7 °C -1 °C 1007.3 hPa SSW 8 km/h 11.3 km/h 32% 0 mm 629 W/m2
14:52 16.3 °C -0.4 °C 1007 hPa SW 8 km/h 17.7 km/h 32% 0 mm 538 W/m2
14:58 16.4 °C -0.8 °C 1006.7 hPa SSW 8 km/h 17.7 km/h 31% 0 mm 513 W/m2
15:04 16.3 °C -1.3 °C 1006.7 hPa SSW 9.7 km/h 12.9 km/h 30% 0 mm 441 W/m2
15:10 16.3 °C -0.4 °C 1006.7 hPa SSW 9.7 km/h 9.7 km/h 32% 0 mm 422 W/m2
15:16 16.1 °C -0.2 °C 1006.7 hPa SSW 9.7 km/h 12.9 km/h 33% 0 mm 290 W/m2
15:22 16.1 °C 0.6 °C 1006.7 hPa SW 11.3 km/h 12.9 km/h 35% 0 mm 304 W/m2
15:30 15.7 °C -0.2 °C 1006.7 hPa SW 11.3 km/h 20.9 km/h 34% 0 mm 153 W/m2
15:38 15.4 °C -0.4 °C 1006.7 hPa SW 9.7 km/h 20.9 km/h 34% 0 mm 250 W/m2
15:44 15.6 °C 0.2 °C 1006.7 hPa SSW 6.4 km/h 9.7 km/h 35% 0 mm 348 W/m2
15:50 15.7 °C -0.2 °C 1006.7 hPa SSW 6.4 km/h 6.4 km/h 34% 0 mm 141 W/m2
15:56 15.6 °C -0.3 °C 1006.7 hPa South 6.4 km/h 20.9 km/h 34% 0 mm 121 W/m2
16:02 15.3 °C -0.5 °C 1006.7 hPa WSW 8 km/h 8 km/h 34% 0 mm 90 W/m2
16:10 15.1 °C -0.7 °C 1007 hPa SW 8 km/h 16.1 km/h 34% 0 mm 72 W/m2
16:18 14.9 °C -0.4 °C 1007 hPa SSW 9.7 km/h 16.1 km/h 35% 0 mm 47 W/m2
16:24 14.9 °C -0.1 °C 1007 hPa WSW 9.7 km/h 14.5 km/h 36% 0 mm 35 W/m2
16:30 14.6 °C 0.7 °C 1007.3 hPa WSW 14.5 km/h 14.5 km/h 39% 0 mm 32 W/m2
16:36 13.7 °C 2.6 °C 1007.7 hPa West 14.5 km/h 14.5 km/h 47% 0 mm 18 W/m2
16:42 12.4 °C 3.7 °C 1007.7 hPa SW 14.5 km/h 14.5 km/h 55% 0 mm 18 W/m2
16:48 11.4 °C 4.6 °C 1008 hPa SW 12.9 km/h 14.5 km/h 63% 0 mm 21 W/m2
16:54 10.9 °C 5 °C 1008 hPa West 9.7 km/h 16.1 km/h 67% 0 mm 14 W/m2
17:00 10.5 °C 5.3 °C 1008 hPa SSW 8 km/h 9.7 km/h 70% 0 mm 21 W/m2
17:06 10.2 °C 5.3 °C 1008 hPa SW 6.4 km/h 9.7 km/h 72% 1.27 mm 12 W/m2
17:12 9.9 °C 5.4 °C 1007.7 hPa SSW 4.8 km/h 6.4 km/h 74% 1.27 mm 5 W/m2
17:18 9.7 °C 5.7 °C 1007.7 hPa SSW 3.2 km/h 6.4 km/h 76% 1.27 mm 7 W/m2
17:24 9.6 °C 5.9 °C 1007.7 hPa SSW 1.6 km/h 3.2 km/h 78% 0 mm 0 W/m2
17:30 9.6 °C 6.1 °C 1007.7 hPa SSW 3.2 km/h 3.2 km/h 79% 0 mm 0 W/m2
17:36 9.5 °C 6.1 °C 1007.7 hPa South 3.2 km/h 4.8 km/h 79% 0 mm 0 W/m2
17:42 9.6 °C 6.1 °C 1007.7 hPa South 3.2 km/h 3.2 km/h 79% 0 mm 0 W/m2
17:48 9.5 °C 6.1 °C 1007.7 hPa South 3.2 km/h 4.8 km/h 79% 0 mm 0 W/m2
17:54 9.4 °C 6.2 °C 1007.7 hPa South 3.2 km/h 6.4 km/h 80% 0 mm 0 W/m2
18:00 9.4 °C 6.1 °C 1007.7 hPa South 1.6 km/h 1.6 km/h 80% 0 mm 0 W/m2
18:06 9.4 °C 6.1 °C 1008 hPa South 1.6 km/h 4.8 km/h 80% 0 mm 0 W/m2
18:12 9.4 °C 6.1 °C 1007.7 hPa South 3.2 km/h 4.8 km/h 80% 0 mm 0 W/m2
18:18 9.4 °C 6.1 °C 1007.7 hPa South 3.2 km/h 4.8 km/h 80% 0 mm 0 W/m2
18:24 9.3 °C 6.2 °C 1007.7 hPa Calm   3.2 km/h 81% 0 mm 0 W/m2
18:30 9.2 °C 6.1 °C 1007.7 hPa Calm     81% 0 mm 0 W/m2
18:36 9.2 °C 6.3 °C 1008 hPa Calm     82% 0 mm 0 W/m2
18:42 9.2 °C 6.3 °C 1008 hPa Calm     82% 0 mm 0 W/m2
18:48 9.2 °C 6.3 °C 1008.4 hPa Calm     82% 0 mm 0 W/m2
18:54 9.1 °C 6.4 °C 1008.4 hPa Calm     83% 0 mm 0 W/m2
19:00 9 °C 6.3 °C 1008.4 hPa Calm     83% 0 mm 0 W/m2
19:06 8.9 °C 6.3 °C 1008.4 hPa Calm     84% 0 mm 0 W/m2
19:12 8.8 °C 6.2 °C 1008.4 hPa Calm     84% 0 mm 0 W/m2
19:18 8.7 °C 6.3 °C 1008.4 hPa Calm     85% 0 mm 0 W/m2
19:24 8.6 °C 6.2 °C 1008.4 hPa Calm     85% 0 mm 0 W/m2
19:30 8.5 °C 6.3 °C 1008.4 hPa Calm     86% 0 mm 0 W/m2
19:36 8.4 °C 6.2 °C 1008.4 hPa Calm     86% 0 mm 0 W/m2
19:42 8.3 °C 6.3 °C 1008 hPa Calm     87% 0 mm 0 W/m2
19:48 8.3 °C 6.2 °C 1008 hPa Calm     87% 0 mm 0 W/m2
19:54 8.3 °C 6.2 °C 1008 hPa Calm     87% 0 mm 0 W/m2
20:00 8.3 °C 6.2 °C 1008 hPa Calm   3.2 km/h 87% 0 mm 0 W/m2
20:06 8.4 °C 6.4 °C 1008 hPa South 1.6 km/h 4.8 km/h 87% 0 mm 0 W/m2
20:12 8.6 °C 6.4 °C 1008.4 hPa South 1.6 km/h 1.6 km/h 86% 0 mm 0 W/m2
20:18 8.7 °C 6.3 °C 1008.4 hPa Calm   1.6 km/h 85% 0 mm 0 W/m2
20:24 8.8 °C 6.2 °C 1008.4 hPa Calm     84% 0 mm 0 W/m2
20:30 8.8 °C 6.3 °C 1008.4 hPa Calm     84% 0 mm 0 W/m2
20:36 8.8 °C 6.1 °C 1008.4 hPa Calm     83% 0 mm 0 W/m2
20:42 8.8 °C 6.1 °C 1008.4 hPa Calm     83% 0 mm 0 W/m2
20:48 8.7 °C 5.9 °C 1008.4 hPa Calm     83% 0 mm 0 W/m2
20:54 8.6 °C 5.9 °C 1008.4 hPa Calm     83% 0 mm 0 W/m2
21:00 8.5 °C 5.8 °C 1008.4 hPa Calm     83% 0 mm 0 W/m2
21:06 8.4 °C 5.9 °C 1008.4 hPa Calm   1.6 km/h 84% 0 mm 0 W/m2
21:12 8.7 °C 6.1 °C 1008.4 hPa SW 1.6 km/h 1.6 km/h 84% 0 mm 0 W/m2
21:18 8.9 °C 6.2 °C 1008.4 hPa SW 1.6 km/h 1.6 km/h 83% 0 mm 0 W/m2
21:24 8.9 °C 6.1 °C 1008.4 hPa Calm     82% 0 mm 0 W/m2
21:30 9.1 °C 6.2 °C 1008.4 hPa Calm     82% 0 mm 0 W/m2
21:36 9.1 °C 6 °C 1008.4 hPa SW 1.6 km/h 1.6 km/h 81% 0 mm 0 W/m2
21:42 9.2 °C 6.1 °C 1008.7 hPa Calm   1.6 km/h 81% 0 mm 0 W/m2
21:48 9.2 °C 6.1 °C 1008.7 hPa Calm   1.6 km/h 81% 0 mm 0 W/m2
21:54 9.3 °C 6 °C 1008.4 hPa Calm   1.6 km/h 80% 0 mm 0 W/m2
22:00 9.3 °C 6.1 °C 1008.4 hPa SW 1.6 km/h 8 km/h 80% 0 mm 0 W/m2
22:06 9.4 °C 6 °C 1008.4 hPa West 3.2 km/h 8 km/h 79% 0 mm 0 W/m2
22:12 9.6 °C 6.1 °C 1008.4 hPa West 3.2 km/h 3.2 km/h 79% 0 mm 0 W/m2
22:18 9.7 °C 6.2 °C 1008.4 hPa WSW 3.2 km/h 6.4 km/h 79% 0 mm 0 W/m2
22:24 9.8 °C 6.1 °C 1008.4 hPa SSW 3.2 km/h 3.2 km/h 78% 0 mm 0 W/m2
22:30 9.7 °C 6.1 °C 1008.4 hPa WSW 1.6 km/h 1.6 km/h 78% 0 mm 0 W/m2
22:36 9.7 °C 6 °C 1008.4 hPa WSW 3.2 km/h 3.2 km/h 78% 0 mm 0 W/m2
22:42 9.7 °C 6 °C 1008.7 hPa WSW 1.6 km/h 1.6 km/h 78% 0 mm 0 W/m2
22:48 9.6 °C 5.9 °C 1008.7 hPa Calm   1.6 km/h 78% 0 mm 0 W/m2
22:54 9.6 °C 5.9 °C 1008.7 hPa Calm   3.2 km/h 78% 0 mm 0 W/m2
23:00 9.6 °C 6.2 °C 1008.7 hPa WNW 1.6 km/h 1.6 km/h 79% 0 mm 0 W/m2
23:06 9.6 °C 5.9 °C 1008.7 hPa West 1.6 km/h 3.2 km/h 78% 0 mm 0 W/m2
23:12 9.7 °C 6 °C 1008.7 hPa West 1.6 km/h 3.2 km/h 78% 0 mm 0 W/m2
23:18 9.6 °C 5.9 °C 1008.7 hPa West 1.6 km/h 3.2 km/h 78% 0 mm 0 W/m2
23:24 9.6 °C 5.9 °C 1008.7 hPa WNW 1.6 km/h 3.2 km/h 78% 0 mm 0 W/m2
23:30 9.6 °C 6.1 °C 1008.7 hPa WNW 1.6 km/h 1.6 km/h 79% 0 mm 0 W/m2
23:36 9.4 °C 6 °C 1009 hPa WNW 1.6 km/h 9.7 km/h 79% 0 mm 0 W/m2
23:42 9.4 °C 5.7 °C 1009.4 hPa WNW 3.2 km/h 3.2 km/h 78% 0 mm 0 W/m2
23:48 9.2 °C 5.6 °C 1009.4 hPa NW 3.2 km/h 8 km/h 78% 0 mm 0 W/m2
23:54 9.1 °C 5.5 °C 1009.4 hPa WNW 4.8 km/h 6.4 km/h 78% 0 mm 0 W/m2
Country Meadow, Clay, NY, USA
Compliments of Weather Underground - 2 mb